Terminal Aerodrome Forecast
Issued by NWS

Home | Current Version | Previous Version | Text Only | Print | Product List | Glossary On
Versions: 1 2 3 4 5 6 7 8 9 10 11 12
000
FTUS45 KREV 251700
TAFTRK
TAF
KTRK 251728Z 2518/2618 21022G40KT 6SM -SHRA SCT020 BKN035
     FM260100 24012G20KT P6SM VCSH SCT030 BKN070
     FM261200 VRB02KT P6SM BCFG SCT030=

USA.gov is the U.S. government's official web portal to all federal, state and local government web resources and services.